KBLI

Bellingham International Airport

Bellingham, Washington, USA
METAR KBLI 140653Z AUTO 15021G33KT 10SM FEW080 13/M02 A2979 RMK AO2 PK WND 17033/0644 SLP093 T01331017
Observed Flight Rules
Dec-14 @ 06:53 UTC (an hour ago) Visual Flight Rules
Wind Visibility Clouds
150° at 21 knots
 Gusting to 33 knots
10 miles
  • Few at 8,000' AGL
Temperatures Readings
Current 13°C / 55°F
Dewpoint -2°C / 28°F
Humidity 36%
Altimeter 29.79" Hg
Pressure 1009.3 hPa
Elevation 50
METAR KBLI 140653Z AUTO 15021G33KT 10SM FEW080 13/M02 A2979 RMK AO2 PK WND 17033/0644 SLP093 T01331017
Observed Flight Rules
Dec-14 @ 06:53 UTC
(an hour ago)
VFR
Wind Visibility
150° at 21 knots
 Gusting to 33 knots
10 miles
Clouds
  • Few at 8,000' AGL
Temperature Dewpoint
13°C / 55°F -2°C / 28°F
Humidity Altimeter Pressure
36% 29.79" Hg 1009.3 hPa